sensor_id;sensor_type;location;lat;lon;timestamp;P1;durP1;ratioP1;P2;durP2;ratioP2
28246;SDS011;66191;53.178;22.058;2022-12-29T00:00:45;27.95;;;14.15;;
28246;SDS011;66191;53.178;22.058;2022-12-29T00:03:20;25.02;;;13.25;;
28246;SDS011;66191;53.178;22.058;2022-12-29T00:05:55;23.92;;;12.93;;
28246;SDS011;66191;53.178;22.058;2022-12-29T00:08:28;29.10;;;15.20;;
28246;SDS011;66191;53.178;22.058;2022-12-29T00:11:10;26.85;;;13.93;;
28246;SDS011;66191;53.178;22.058;2022-12-29T00:13:42;26.98;;;13.95;;
28246;SDS011;66191;53.178;22.058;2022-12-29T00:16:29;27.42;;;13.77;;
28246;SDS011;66191;53.178;22.058;2022-12-29T00:19:02;28.67;;;14.65;;
28246;SDS011;66191;53.178;22.058;2022-12-29T00:21:54;37.05;;;17.02;;
28246;SDS011;66191;53.178;22.058;2022-12-29T00:24:38;41.15;;;21.08;;
28246;SDS011;66191;53.178;22.058;2022-12-29T00:27:22;27.02;;;15.50;;
28246;SDS011;66191;53.178;22.058;2022-12-29T00:30:07;28.63;;;16.20;;
28246;SDS011;66191;53.178;22.058;2022-12-29T00:32:55;30.95;;;14.25;;
28246;SDS011;66191;53.178;22.058;2022-12-29T00:35:39;33.45;;;18.23;;
28246;SDS011;66191;53.178;22.058;2022-12-29T00:38:13;31.27;;;16.70;;
28246;SDS011;66191;53.178;22.058;2022-12-29T00:40:57;31.17;;;15.55;;
28246;SDS011;66191;53.178;22.058;2022-12-29T00:43:41;29.83;;;17.08;;
28246;SDS011;66191;53.178;22.058;2022-12-29T00:46:24;26.70;;;15.05;;
28246;SDS011;66191;53.178;22.058;2022-12-29T00:48:59;28.25;;;15.50;;
28246;SDS011;66191;53.178;22.058;2022-12-29T00:51:43;29.98;;;15.50;;
28246;SDS011;66191;53.178;22.058;2022-12-29T00:54:15;31.15;;;16.38;;
28246;SDS011;66191;53.178;22.058;2022-12-29T00:56:48;32.20;;;16.33;;
28246;SDS011;66191;53.178;22.058;2022-12-29T00:59:20;27.08;;;14.43;;
28246;SDS011;66191;53.178;22.058;2022-12-29T01:01:52;29.60;;;15.07;;
28246;SDS011;66191;53.178;22.058;2022-12-29T01:04:27;25.88;;;14.20;;
28246;SDS011;66191;53.178;22.058;2022-12-29T01:06:59;29.40;;;14.48;;
28246;SDS011;66191;53.178;22.058;2022-12-29T01:09:32;32.20;;;14.80;;
28246;SDS011;66191;53.178;22.058;2022-12-29T01:12:15;29.58;;;14.18;;
28246;SDS011;66191;53.178;22.058;2022-12-29T01:15:10;29.10;;;13.25;;
28246;SDS011;66191;53.178;22.058;2022-12-29T01:17:42;23.67;;;12.75;;
28246;SDS011;66191;53.178;22.058;2022-12-29T01:20:16;27.23;;;14.63;;
28246;SDS011;66191;53.178;22.058;2022-12-29T01:22:48;27.88;;;14.65;;
28246;SDS011;66191;53.178;22.058;2022-12-29T01:25:20;22.08;;;13.73;;
28246;SDS011;66191;53.178;22.058;2022-12-29T01:27:51;33.10;;;18.20;;
28246;SDS011;66191;53.178;22.058;2022-12-29T01:30:23;29.42;;;14.55;;
28246;SDS011;66191;53.178;22.058;2022-12-29T01:32:55;35.47;;;18.45;;
28246;SDS011;66191;53.178;22.058;2022-12-29T01:35:29;28.65;;;16.50;;
28246;SDS011;66191;53.178;22.058;2022-12-29T01:38:00;36.28;;;17.58;;
28246;SDS011;66191;53.178;22.058;2022-12-29T01:40:31;29.45;;;15.27;;
28246;SDS011;66191;53.178;22.058;2022-12-29T01:45:34;34.65;;;17.52;;
28246;SDS011;66191;53.178;22.058;2022-12-29T01:48:06;36.92;;;20.02;;
28246;SDS011;66191;53.178;22.058;2022-12-29T01:50:44;30.45;;;18.25;;
28246;SDS011;66191;53.178;22.058;2022-12-29T01:53:20;33.78;;;19.55;;
28246;SDS011;66191;53.178;22.058;2022-12-29T01:55:57;33.35;;;18.38;;
28246;SDS011;66191;53.178;22.058;2022-12-29T01:58:33;31.33;;;17.33;;
28246;SDS011;66191;53.178;22.058;2022-12-29T02:01:10;30.90;;;16.27;;
28246;SDS011;66191;53.178;22.058;2022-12-29T02:03:41;34.42;;;17.60;;
28246;SDS011;66191;53.178;22.058;2022-12-29T02:06:16;32.72;;;17.42;;
28246;SDS011;66191;53.178;22.058;2022-12-29T02:08:52;28.70;;;16.30;;
28246;SDS011;66191;53.178;22.058;2022-12-29T02:11:25;30.98;;;16.15;;
28246;SDS011;66191;53.178;22.058;2022-12-29T02:13:59;28.85;;;16.25;;
28246;SDS011;66191;53.178;22.058;2022-12-29T02:16:32;36.28;;;19.25;;
28246;SDS011;66191;53.178;22.058;2022-12-29T02:22:18;30.23;;;14.13;;
28246;SDS011;66191;53.178;22.058;2022-12-29T02:28:15;23.30;;;13.80;;
28246;SDS011;66191;53.178;22.058;2022-12-29T02:31:18;34.20;;;15.52;;
28246;SDS011;66191;53.178;22.058;2022-12-29T02:34:00;28.80;;;15.15;;
28246;SDS011;66191;53.178;22.058;2022-12-29T02:36:40;24.20;;;13.32;;
28246;SDS011;66191;53.178;22.058;2022-12-29T02:39:19;24.42;;;12.82;;
28246;SDS011;66191;53.178;22.058;2022-12-29T02:42:01;24.63;;;13.02;;
28246;SDS011;66191;53.178;22.058;2022-12-29T02:44:42;23.17;;;12.45;;
28246;SDS011;66191;53.178;22.058;2022-12-29T02:47:27;24.83;;;13.50;;
28246;SDS011;66191;53.178;22.058;2022-12-29T02:50:08;20.70;;;11.82;;
28246;SDS011;66191;53.178;22.058;2022-12-29T02:52:46;21.80;;;11.38;;
28246;SDS011;66191;53.178;22.058;2022-12-29T02:55:21;24.63;;;12.60;;
28246;SDS011;66191;53.178;22.058;2022-12-29T02:58:02;25.50;;;12.65;;
28246;SDS011;66191;53.178;22.058;2022-12-29T03:00:54;24.27;;;13.30;;
28246;SDS011;66191;53.178;22.058;2022-12-29T03:03:39;23.90;;;11.95;;
28246;SDS011;66191;53.178;22.058;2022-12-29T03:06:22;24.80;;;12.85;;
28246;SDS011;66191;53.178;22.058;2022-12-29T03:09:04;26.83;;;13.25;;
28246;SDS011;66191;53.178;22.058;2022-12-29T03:11:47;24.63;;;13.90;;
28246;SDS011;66191;53.178;22.058;2022-12-29T03:14:49;27.38;;;13.85;;
28246;SDS011;66191;53.178;22.058;2022-12-29T03:17:43;24.75;;;12.95;;
28246;SDS011;66191;53.178;22.058;2022-12-29T03:20:24;23.45;;;13.57;;
28246;SDS011;66191;53.178;22.058;2022-12-29T03:23:02;23.15;;;12.77;;
28246;SDS011;66191;53.178;22.058;2022-12-29T03:25:36;22.23;;;12.70;;
28246;SDS011;66191;53.178;22.058;2022-12-29T03:28:12;19.95;;;11.45;;
28246;SDS011;66191;53.178;22.058;2022-12-29T03:30:49;20.52;;;10.80;;
28246;SDS011;66191;53.178;22.058;2022-12-29T03:33:21;26.17;;;13.15;;
28246;SDS011;66191;53.178;22.058;2022-12-29T03:36:02;24.33;;;12.80;;
28246;SDS011;66191;53.178;22.058;2022-12-29T03:38:37;23.65;;;11.95;;
28246;SDS011;66191;53.178;22.058;2022-12-29T03:41:14;22.48;;;11.90;;
28246;SDS011;66191;53.178;22.058;2022-12-29T03:43:51;20.10;;;11.00;;
28246;SDS011;66191;53.178;22.058;2022-12-29T03:46:23;22.65;;;12.70;;
28246;SDS011;66191;53.178;22.058;2022-12-29T03:48:55;28.17;;;12.55;;
28246;SDS011;66191;53.178;22.058;2022-12-29T03:51:28;27.88;;;12.85;;
28246;SDS011;66191;53.178;22.058;2022-12-29T03:54:00;19.00;;;10.88;;
28246;SDS011;66191;53.178;22.058;2022-12-29T03:56:32;23.52;;;13.63;;
28246;SDS011;66191;53.178;22.058;2022-12-29T03:59:04;30.02;;;16.23;;
28246;SDS011;66191;53.178;22.058;2022-12-29T04:01:39;26.95;;;14.27;;
28246;SDS011;66191;53.178;22.058;2022-12-29T04:04:10;30.73;;;16.77;;
28246;SDS011;66191;53.178;22.058;2022-12-29T04:06:46;26.60;;;15.23;;
28246;SDS011;66191;53.178;22.058;2022-12-29T04:09:17;21.63;;;11.45;;
28246;SDS011;66191;53.178;22.058;2022-12-29T04:11:50;27.63;;;14.02;;
28246;SDS011;66191;53.178;22.058;2022-12-29T04:14:22;24.40;;;12.75;;
28246;SDS011;66191;53.178;22.058;2022-12-29T04:16:53;31.27;;;14.68;;
28246;SDS011;66191;53.178;22.058;2022-12-29T04:19:24;29.48;;;16.70;;
28246;SDS011;66191;53.178;22.058;2022-12-29T04:21:57;24.25;;;14.70;;
28246;SDS011;66191;53.178;22.058;2022-12-29T04:24:29;28.83;;;16.25;;
28246;SDS011;66191;53.178;22.058;2022-12-29T04:27:02;37.30;;;22.13;;
28246;SDS011;66191;53.178;22.058;2022-12-29T04:29:54;25.10;;;11.75;;
28246;SDS011;66191;53.178;22.058;2022-12-29T04:35:16;19.10;;;10.38;;
28246;SDS011;66191;53.178;22.058;2022-12-29T04:37:51;18.80;;;10.95;;
28246;SDS011;66191;53.178;22.058;2022-12-29T04:40:23;22.05;;;12.60;;
28246;SDS011;66191;53.178;22.058;2022-12-29T04:42:54;34.53;;;20.77;;
28246;SDS011;66191;53.178;22.058;2022-12-29T04:45:26;20.23;;;10.45;;
28246;SDS011;66191;53.178;22.058;2022-12-29T04:48:08;21.83;;;11.57;;
28246;SDS011;66191;53.178;22.058;2022-12-29T04:50:59;17.67;;;9.73;;
28246;SDS011;66191;53.178;22.058;2022-12-29T04:53:38;22.83;;;10.48;;
28246;SDS011;66191;53.178;22.058;2022-12-29T04:56:10;21.95;;;12.18;;
28246;SDS011;66191;53.178;22.058;2022-12-29T04:58:42;37.17;;;20.50;;
28246;SDS011;66191;53.178;22.058;2022-12-29T05:01:15;30.58;;;16.55;;
28246;SDS011;66191;53.178;22.058;2022-12-29T05:03:46;22.67;;;11.50;;
28246;SDS011;66191;53.178;22.058;2022-12-29T05:06:20;22.63;;;11.65;;
28246;SDS011;66191;53.178;22.058;2022-12-29T05:08:55;19.80;;;10.18;;
28246;SDS011;66191;53.178;22.058;2022-12-29T05:11:27;20.08;;;10.95;;
28246;SDS011;66191;53.178;22.058;2022-12-29T05:14:00;18.73;;;10.25;;
28246;SDS011;66191;53.178;22.058;2022-12-29T05:16:32;26.83;;;14.70;;
28246;SDS011;66191;53.178;22.058;2022-12-29T05:19:03;43.90;;;25.35;;
28246;SDS011;66191;53.178;22.058;2022-12-29T05:21:35;22.40;;;12.05;;
28246;SDS011;66191;53.178;22.058;2022-12-29T05:24:09;25.30;;;11.85;;
28246;SDS011;66191;53.178;22.058;2022-12-29T05:26:41;24.35;;;11.93;;
28246;SDS011;66191;53.178;22.058;2022-12-29T05:29:37;19.92;;;11.90;;
28246;SDS011;66191;53.178;22.058;2022-12-29T05:32:09;23.88;;;11.85;;
28246;SDS011;66191;53.178;22.058;2022-12-29T05:34:42;33.40;;;21.55;;
28246;SDS011;66191;53.178;22.058;2022-12-29T05:37:15;29.48;;;15.98;;
28246;SDS011;66191;53.178;22.058;2022-12-29T05:39:48;24.73;;;13.57;;
28246;SDS011;66191;53.178;22.058;2022-12-29T05:42:20;20.17;;;11.18;;
28246;SDS011;66191;53.178;22.058;2022-12-29T05:44:57;23.52;;;12.85;;
28246;SDS011;66191;53.178;22.058;2022-12-29T05:48:01;22.88;;;12.30;;
28246;SDS011;66191;53.178;22.058;2022-12-29T05:51:11;25.23;;;11.82;;
28246;SDS011;66191;53.178;22.058;2022-12-29T05:53:48;28.55;;;15.55;;
28246;SDS011;66191;53.178;22.058;2022-12-29T05:56:22;35.38;;;17.88;;
28246;SDS011;66191;53.178;22.058;2022-12-29T05:58:58;24.48;;;13.65;;
28246;SDS011;66191;53.178;22.058;2022-12-29T06:01:29;24.30;;;13.82;;
28246;SDS011;66191;53.178;22.058;2022-12-29T06:04:03;39.70;;;19.52;;
28246;SDS011;66191;53.178;22.058;2022-12-29T06:06:34;34.53;;;16.48;;
28246;SDS011;66191;53.178;22.058;2022-12-29T06:09:09;37.70;;;17.85;;
28246;SDS011;66191;53.178;22.058;2022-12-29T06:11:43;35.33;;;16.88;;
28246;SDS011;66191;53.178;22.058;2022-12-29T06:14:15;36.33;;;16.73;;
28246;SDS011;66191;53.178;22.058;2022-12-29T06:16:47;35.90;;;16.92;;
28246;SDS011;66191;53.178;22.058;2022-12-29T06:19:18;36.47;;;15.40;;
28246;SDS011;66191;53.178;22.058;2022-12-29T06:24:20;30.40;;;13.32;;
28246;SDS011;66191;53.178;22.058;2022-12-29T06:26:54;22.13;;;11.02;;
28246;SDS011;66191;53.178;22.058;2022-12-29T06:29:27;29.98;;;12.75;;
28246;SDS011;66191;53.178;22.058;2022-12-29T06:31:59;29.75;;;14.32;;
28246;SDS011;66191;53.178;22.058;2022-12-29T06:34:32;23.67;;;12.18;;
28246;SDS011;66191;53.178;22.058;2022-12-29T06:39:35;78.07;;;30.27;;
28246;SDS011;66191;53.178;22.058;2022-12-29T06:42:12;62.83;;;29.15;;
28246;SDS011;66191;53.178;22.058;2022-12-29T06:44:56;32.97;;;17.80;;
28246;SDS011;66191;53.178;22.058;2022-12-29T06:47:28;36.25;;;17.58;;
28246;SDS011;66191;53.178;22.058;2022-12-29T06:50:00;41.63;;;23.58;;
28246;SDS011;66191;53.178;22.058;2022-12-29T06:52:31;48.88;;;24.67;;
28246;SDS011;66191;53.178;22.058;2022-12-29T06:55:04;66.70;;;27.58;;
28246;SDS011;66191;53.178;22.058;2022-12-29T06:57:38;43.03;;;18.08;;
28246;SDS011;66191;53.178;22.058;2022-12-29T07:00:10;39.90;;;18.27;;
28246;SDS011;66191;53.178;22.058;2022-12-29T07:02:48;43.95;;;20.88;;
28246;SDS011;66191;53.178;22.058;2022-12-29T07:05:21;32.63;;;14.90;;
28246;SDS011;66191;53.178;22.058;2022-12-29T07:07:52;38.55;;;22.00;;
28246;SDS011;66191;53.178;22.058;2022-12-29T07:10:24;49.38;;;22.83;;
28246;SDS011;66191;53.178;22.058;2022-12-29T07:12:58;28.73;;;13.75;;
28246;SDS011;66191;53.178;22.058;2022-12-29T07:15:29;23.23;;;11.93;;
28246;SDS011;66191;53.178;22.058;2022-12-29T07:18:01;25.27;;;12.90;;
28246;SDS011;66191;53.178;22.058;2022-12-29T07:20:33;54.55;;;31.67;;
28246;SDS011;66191;53.178;22.058;2022-12-29T07:23:05;75.55;;;46.50;;
28246;SDS011;66191;53.178;22.058;2022-12-29T07:25:37;79.20;;;46.35;;
28246;SDS011;66191;53.178;22.058;2022-12-29T07:28:12;76.10;;;38.88;;
28246;SDS011;66191;53.178;22.058;2022-12-29T07:30:45;84.18;;;44.78;;
28246;SDS011;66191;53.178;22.058;2022-12-29T07:33:17;96.60;;;52.80;;
28246;SDS011;66191;53.178;22.058;2022-12-29T07:35:49;54.97;;;29.13;;
28246;SDS011;66191;53.178;22.058;2022-12-29T07:38:20;39.08;;;19.10;;
28246;SDS011;66191;53.178;22.058;2022-12-29T07:40:55;42.88;;;19.02;;
28246;SDS011;66191;53.178;22.058;2022-12-29T07:43:30;52.45;;;21.52;;
28246;SDS011;66191;53.178;22.058;2022-12-29T07:46:20;36.40;;;17.35;;
28246;SDS011;66191;53.178;22.058;2022-12-29T07:49:10;27.75;;;14.13;;
28246;SDS011;66191;53.178;22.058;2022-12-29T07:51:42;30.73;;;14.82;;
28246;SDS011;66191;53.178;22.058;2022-12-29T07:56:45;35.15;;;17.85;;
28246;SDS011;66191;53.178;22.058;2022-12-29T07:59:19;47.75;;;21.40;;
28246;SDS011;66191;53.178;22.058;2022-12-29T08:01:51;31.08;;;13.48;;
28246;SDS011;66191;53.178;22.058;2022-12-29T08:04:23;28.88;;;13.65;;
28246;SDS011;66191;53.178;22.058;2022-12-29T08:06:54;39.63;;;18.98;;
28246;SDS011;66191;53.178;22.058;2022-12-29T08:11:57;38.05;;;18.13;;
28246;SDS011;66191;53.178;22.058;2022-12-29T08:14:30;43.17;;;22.45;;
28246;SDS011;66191;53.178;22.058;2022-12-29T08:17:02;36.08;;;15.77;;
28246;SDS011;66191;53.178;22.058;2022-12-29T08:24:35;41.63;;;16.88;;
28246;SDS011;66191;53.178;22.058;2022-12-29T08:27:07;41.78;;;19.73;;
28246;SDS011;66191;53.178;22.058;2022-12-29T08:29:49;40.58;;;20.35;;
28246;SDS011;66191;53.178;22.058;2022-12-29T08:32:20;41.75;;;21.10;;
28246;SDS011;66191;53.178;22.058;2022-12-29T08:34:51;47.50;;;26.08;;
28246;SDS011;66191;53.178;22.058;2022-12-29T08:37:23;46.35;;;24.90;;
28246;SDS011;66191;53.178;22.058;2022-12-29T08:39:57;41.30;;;21.75;;
28246;SDS011;66191;53.178;22.058;2022-12-29T08:42:31;40.35;;;21.02;;
28246;SDS011;66191;53.178;22.058;2022-12-29T08:45:05;41.60;;;22.38;;
28246;SDS011;66191;53.178;22.058;2022-12-29T08:47:39;37.03;;;16.98;;
28246;SDS011;66191;53.178;22.058;2022-12-29T08:50:10;29.40;;;16.35;;
28246;SDS011;66191;53.178;22.058;2022-12-29T08:52:41;28.67;;;14.15;;
28246;SDS011;66191;53.178;22.058;2022-12-29T08:55:13;28.60;;;14.10;;
28246;SDS011;66191;53.178;22.058;2022-12-29T08:57:46;39.78;;;21.73;;
28246;SDS011;66191;53.178;22.058;2022-12-29T09:00:22;48.88;;;22.58;;
28246;SDS011;66191;53.178;22.058;2022-12-29T09:02:54;34.08;;;17.10;;
28246;SDS011;66191;53.178;22.058;2022-12-29T09:05:25;49.20;;;22.48;;
28246;SDS011;66191;53.178;22.058;2022-12-29T09:07:57;34.97;;;18.30;;
28246;SDS011;66191;53.178;22.058;2022-12-29T09:10:28;39.38;;;19.42;;
28246;SDS011;66191;53.178;22.058;2022-12-29T09:13:00;33.83;;;16.83;;
28246;SDS011;66191;53.178;22.058;2022-12-29T09:15:35;35.22;;;19.00;;
28246;SDS011;66191;53.178;22.058;2022-12-29T09:18:06;43.50;;;20.95;;
28246;SDS011;66191;53.178;22.058;2022-12-29T09:20:46;35.58;;;18.65;;
28246;SDS011;66191;53.178;22.058;2022-12-29T09:23:18;34.72;;;16.67;;
28246;SDS011;66191;53.178;22.058;2022-12-29T09:25:51;51.38;;;23.38;;
28246;SDS011;66191;53.178;22.058;2022-12-29T09:28:22;50.67;;;25.20;;
28246;SDS011;66191;53.178;22.058;2022-12-29T09:30:59;39.65;;;19.77;;
28246;SDS011;66191;53.178;22.058;2022-12-29T09:33:31;35.35;;;19.80;;
28246;SDS011;66191;53.178;22.058;2022-12-29T09:36:03;35.92;;;18.48;;
28246;SDS011;66191;53.178;22.058;2022-12-29T09:38:35;31.98;;;15.45;;
28246;SDS011;66191;53.178;22.058;2022-12-29T09:41:07;38.20;;;17.20;;
28246;SDS011;66191;53.178;22.058;2022-12-29T09:43:51;128.18;;;62.47;;
28246;SDS011;66191;53.178;22.058;2022-12-29T09:46:32;174.25;;;97.22;;
28246;SDS011;66191;53.178;22.058;2022-12-29T09:49:11;101.82;;;53.53;;
28246;SDS011;66191;53.178;22.058;2022-12-29T09:51:51;78.72;;;43.33;;
28246;SDS011;66191;53.178;22.058;2022-12-29T09:54:29;62.30;;;32.80;;
28246;SDS011;66191;53.178;22.058;2022-12-29T09:57:12;160.95;;;66.05;;
28246;SDS011;66191;53.178;22.058;2022-12-29T09:59:47;96.43;;;34.53;;
28246;SDS011;66191;53.178;22.058;2022-12-29T10:02:36;159.90;;;48.83;;
28246;SDS011;66191;53.178;22.058;2022-12-29T10:05:16;186.18;;;64.47;;
28246;SDS011;66191;53.178;22.058;2022-12-29T10:07:56;141.32;;;51.50;;
28246;SDS011;66191;53.178;22.058;2022-12-29T10:10:45;69.13;;;34.53;;
28246;SDS011;66191;53.178;22.058;2022-12-29T10:13:27;41.33;;;22.30;;
28246;SDS011;66191;53.178;22.058;2022-12-29T10:16:08;44.50;;;22.63;;
28246;SDS011;66191;53.178;22.058;2022-12-29T10:19:00;49.03;;;25.30;;
28246;SDS011;66191;53.178;22.058;2022-12-29T10:21:47;52.53;;;27.88;;
28246;SDS011;66191;53.178;22.058;2022-12-29T10:24:28;41.10;;;20.92;;
28246;SDS011;66191;53.178;22.058;2022-12-29T10:27:01;40.70;;;21.67;;
28246;SDS011;66191;53.178;22.058;2022-12-29T10:29:34;39.22;;;21.25;;
28246;SDS011;66191;53.178;22.058;2022-12-29T10:32:15;40.25;;;17.30;;
28246;SDS011;66191;53.178;22.058;2022-12-29T10:34:57;37.67;;;17.48;;
28246;SDS011;66191;53.178;22.058;2022-12-29T10:37:34;27.92;;;15.43;;
28246;SDS011;66191;53.178;22.058;2022-12-29T10:40:14;32.53;;;15.40;;
28246;SDS011;66191;53.178;22.058;2022-12-29T10:42:50;59.08;;;26.83;;
28246;SDS011;66191;53.178;22.058;2022-12-29T10:45:24;107.35;;;45.22;;
28246;SDS011;66191;53.178;22.058;2022-12-29T10:48:01;130.10;;;55.60;;
28246;SDS011;66191;53.178;22.058;2022-12-29T10:50:38;114.43;;;49.90;;
28246;SDS011;66191;53.178;22.058;2022-12-29T10:53:12;83.55;;;39.38;;
28246;SDS011;66191;53.178;22.058;2022-12-29T10:55:49;65.78;;;36.38;;
28246;SDS011;66191;53.178;22.058;2022-12-29T10:58:21;37.15;;;21.42;;
28246;SDS011;66191;53.178;22.058;2022-12-29T11:00:54;46.20;;;23.45;;
28246;SDS011;66191;53.178;22.058;2022-12-29T11:03:36;43.13;;;23.92;;
28246;SDS011;66191;53.178;22.058;2022-12-29T11:06:29;43.40;;;23.02;;
28246;SDS011;66191;53.178;22.058;2022-12-29T11:09:02;31.45;;;16.58;;
28246;SDS011;66191;53.178;22.058;2022-12-29T11:11:42;23.73;;;13.15;;
28246;SDS011;66191;53.178;22.058;2022-12-29T11:14:14;19.70;;;10.10;;
28246;SDS011;66191;53.178;22.058;2022-12-29T11:16:56;20.98;;;11.93;;
28246;SDS011;66191;53.178;22.058;2022-12-29T11:19:28;16.25;;;9.43;;
28246;SDS011;66191;53.178;22.058;2022-12-29T11:22:19;19.23;;;10.50;;
28246;SDS011;66191;53.178;22.058;2022-12-29T11:24:53;18.77;;;11.02;;
28246;SDS011;66191;53.178;22.058;2022-12-29T11:27:25;19.30;;;10.43;;
28246;SDS011;66191;53.178;22.058;2022-12-29T11:29:57;21.77;;;10.55;;
28246;SDS011;66191;53.178;22.058;2022-12-29T11:32:28;23.52;;;10.90;;
28246;SDS011;66191;53.178;22.058;2022-12-29T11:35:00;35.83;;;21.50;;
28246;SDS011;66191;53.178;22.058;2022-12-29T11:37:38;27.27;;;14.88;;
28246;SDS011;66191;53.178;22.058;2022-12-29T11:40:17;18.92;;;11.52;;
28246;SDS011;66191;53.178;22.058;2022-12-29T11:42:51;20.65;;;11.05;;
28246;SDS011;66191;53.178;22.058;2022-12-29T11:45:24;19.73;;;10.60;;
28246;SDS011;66191;53.178;22.058;2022-12-29T11:48:00;26.23;;;12.73;;
28246;SDS011;66191;53.178;22.058;2022-12-29T11:50:37;25.58;;;12.70;;
28246;SDS011;66191;53.178;22.058;2022-12-29T11:53:16;19.05;;;11.23;;
28246;SDS011;66191;53.178;22.058;2022-12-29T11:55:52;17.77;;;11.43;;
28246;SDS011;66191;53.178;22.058;2022-12-29T11:58:29;21.17;;;11.48;;
28246;SDS011;66191;53.178;22.058;2022-12-29T12:01:01;59.65;;;28.70;;
28246;SDS011;66191;53.178;22.058;2022-12-29T12:03:36;43.50;;;21.85;;
28246;SDS011;66191;53.178;22.058;2022-12-29T12:06:14;32.53;;;16.45;;
28246;SDS011;66191;53.178;22.058;2022-12-29T12:08:55;24.00;;;12.82;;
28246;SDS011;66191;53.178;22.058;2022-12-29T12:11:31;27.40;;;12.63;;
28246;SDS011;66191;53.178;22.058;2022-12-29T12:14:11;31.90;;;15.05;;
28246;SDS011;66191;53.178;22.058;2022-12-29T12:17:09;26.65;;;14.07;;
28246;SDS011;66191;53.178;22.058;2022-12-29T12:19:45;26.85;;;15.20;;
28246;SDS011;66191;53.178;22.058;2022-12-29T12:22:21;22.25;;;11.45;;
28246;SDS011;66191;53.178;22.058;2022-12-29T12:25:01;20.83;;;12.93;;
28246;SDS011;66191;53.178;22.058;2022-12-29T12:27:36;27.25;;;14.00;;
28246;SDS011;66191;53.178;22.058;2022-12-29T12:30:14;24.92;;;13.15;;
28246;SDS011;66191;53.178;22.058;2022-12-29T12:32:49;43.75;;;19.42;;
28246;SDS011;66191;53.178;22.058;2022-12-29T12:35:31;34.42;;;17.80;;
28246;SDS011;66191;53.178;22.058;2022-12-29T12:38:09;23.70;;;12.68;;
28246;SDS011;66191;53.178;22.058;2022-12-29T12:41:00;23.58;;;12.30;;
28246;SDS011;66191;53.178;22.058;2022-12-29T12:43:46;25.52;;;14.07;;
28246;SDS011;66191;53.178;22.058;2022-12-29T12:46:29;24.95;;;12.35;;
28246;SDS011;66191;53.178;22.058;2022-12-29T12:49:20;19.48;;;10.00;;
28246;SDS011;66191;53.178;22.058;2022-12-29T12:52:10;26.90;;;11.88;;
28246;SDS011;66191;53.178;22.058;2022-12-29T12:54:55;26.98;;;14.90;;
28246;SDS011;66191;53.178;22.058;2022-12-29T12:57:45;24.88;;;13.77;;
28246;SDS011;66191;53.178;22.058;2022-12-29T13:00:23;23.65;;;13.38;;
28246;SDS011;66191;53.178;22.058;2022-12-29T13:02:59;17.65;;;10.57;;
28246;SDS011;66191;53.178;22.058;2022-12-29T13:05:42;19.45;;;9.27;;
28246;SDS011;66191;53.178;22.058;2022-12-29T13:11:33;27.77;;;15.70;;
28246;SDS011;66191;53.178;22.058;2022-12-29T13:14:22;16.92;;;8.55;;
28246;SDS011;66191;53.178;22.058;2022-12-29T13:17:07;28.27;;;12.18;;
28246;SDS011;66191;53.178;22.058;2022-12-29T13:19:45;32.58;;;14.60;;
28246;SDS011;66191;53.178;22.058;2022-12-29T13:22:28;34.13;;;15.10;;
28246;SDS011;66191;53.178;22.058;2022-12-29T13:25:12;29.98;;;14.35;;
28246;SDS011;66191;53.178;22.058;2022-12-29T13:27:54;30.23;;;15.35;;
28246;SDS011;66191;53.178;22.058;2022-12-29T13:30:32;27.23;;;13.80;;
28246;SDS011;66191;53.178;22.058;2022-12-29T13:33:11;23.90;;;11.68;;
28246;SDS011;66191;53.178;22.058;2022-12-29T13:35:53;23.05;;;10.75;;
28246;SDS011;66191;53.178;22.058;2022-12-29T13:38:32;18.00;;;9.65;;
28246;SDS011;66191;53.178;22.058;2022-12-29T13:41:07;21.15;;;10.82;;
28246;SDS011;66191;53.178;22.058;2022-12-29T13:43:42;19.08;;;9.88;;
28246;SDS011;66191;53.178;22.058;2022-12-29T13:46:21;18.98;;;10.07;;
28246;SDS011;66191;53.178;22.058;2022-12-29T13:48:58;22.83;;;11.93;;
28246;SDS011;66191;53.178;22.058;2022-12-29T13:51:32;20.58;;;11.20;;
28246;SDS011;66191;53.178;22.058;2022-12-29T13:54:07;21.77;;;10.32;;
28246;SDS011;66191;53.178;22.058;2022-12-29T13:56:47;20.58;;;11.02;;
28246;SDS011;66191;53.178;22.058;2022-12-29T13:59:24;26.17;;;12.05;;
28246;SDS011;66191;53.178;22.058;2022-12-29T14:02:13;26.13;;;14.27;;
28246;SDS011;66191;53.178;22.058;2022-12-29T14:04:57;34.95;;;18.73;;
28246;SDS011;66191;53.178;22.058;2022-12-29T14:07:30;27.85;;;14.23;;
28246;SDS011;66191;53.178;22.058;2022-12-29T14:10:18;36.50;;;18.08;;
28246;SDS011;66191;53.178;22.058;2022-12-29T14:13:00;48.75;;;23.95;;
28246;SDS011;66191;53.178;22.058;2022-12-29T14:15:37;61.28;;;29.35;;
28246;SDS011;66191;53.178;22.058;2022-12-29T14:18:14;52.72;;;24.40;;
28246;SDS011;66191;53.178;22.058;2022-12-29T14:20:51;42.67;;;22.02;;
28246;SDS011;66191;53.178;22.058;2022-12-29T14:23:27;39.88;;;20.40;;
28246;SDS011;66191;53.178;22.058;2022-12-29T14:26:17;39.88;;;20.73;;
28246;SDS011;66191;53.178;22.058;2022-12-29T14:38:15;29.70;;;15.98;;
28246;SDS011;66191;53.178;22.058;2022-12-29T14:40:50;26.25;;;13.95;;
28246;SDS011;66191;53.178;22.058;2022-12-29T14:43:25;25.10;;;14.52;;
28246;SDS011;66191;53.178;22.058;2022-12-29T14:45:59;26.60;;;13.32;;
28246;SDS011;66191;53.178;22.058;2022-12-29T14:48:33;31.17;;;15.55;;
28246;SDS011;66191;53.178;22.058;2022-12-29T14:51:21;25.42;;;13.43;;
28246;SDS011;66191;53.178;22.058;2022-12-29T14:54:01;41.20;;;22.35;;
28246;SDS011;66191;53.178;22.058;2022-12-29T14:57:14;41.38;;;22.65;;
28246;SDS011;66191;53.178;22.058;2022-12-29T14:59:52;44.88;;;26.13;;
28246;SDS011;66191;53.178;22.058;2022-12-29T15:02:27;36.50;;;21.15;;
28246;SDS011;66191;53.178;22.058;2022-12-29T15:05:19;27.20;;;15.05;;
28246;SDS011;66191;53.178;22.058;2022-12-29T15:08:00;34.05;;;17.98;;
28246;SDS011;66191;53.178;22.058;2022-12-29T15:10:36;42.08;;;20.20;;
28246;SDS011;66191;53.178;22.058;2022-12-29T15:13:15;36.63;;;16.92;;
28246;SDS011;66191;53.178;22.058;2022-12-29T15:15:48;32.45;;;17.15;;
28246;SDS011;66191;53.178;22.058;2022-12-29T15:18:22;33.60;;;18.00;;
28246;SDS011;66191;53.178;22.058;2022-12-29T15:20:56;31.58;;;16.40;;
28246;SDS011;66191;53.178;22.058;2022-12-29T15:23:33;50.55;;;22.13;;
28246;SDS011;66191;53.178;22.058;2022-12-29T15:26:05;64.38;;;25.25;;
28246;SDS011;66191;53.178;22.058;2022-12-29T15:28:39;74.55;;;28.58;;
28246;SDS011;66191;53.178;22.058;2022-12-29T15:31:13;66.95;;;24.80;;
28246;SDS011;66191;53.178;22.058;2022-12-29T15:33:54;73.78;;;28.38;;
28246;SDS011;66191;53.178;22.058;2022-12-29T15:36:36;62.75;;;25.50;;
28246;SDS011;66191;53.178;22.058;2022-12-29T15:39:20;73.20;;;35.40;;
28246;SDS011;66191;53.178;22.058;2022-12-29T15:41:59;51.13;;;25.88;;
28246;SDS011;66191;53.178;22.058;2022-12-29T15:44:35;36.50;;;17.90;;